This is the latest recevied weather packets stored in our database for station/object HA2SKA-1. If no packets are shown the sender has not sent any weather packets the latest 10 day(s).
| Time | Temp. | Humidity | Pressure | Rain* | Wind** | Luminosity | Snow |
|---|---|---|---|---|---|---|---|
| 1788289507 | 21.67° C | 93% | 1022.5 hPa | - | - | - | - |
| 1788288607 | 21.67° C | 93% | 1022.5 hPa | - | - | - | - |
| 1788287706 | 22.78° C | 80% | 1022.3 hPa | - | - | - | - |
| 1788286806 | 25° C | 63% | 1022.3 hPa | - | - | - | - |
| 1788285906 | 24.44° C | 69% | 1022.1 hPa | - | - | - | - |
| 1788285006 | 25.56° C | 64% | 1021.8 hPa | - | - | - | - |
| 1788284106 | 26.67° C | 57% | 1021.7 hPa | - | - | - | - |
| 1788283206 | 28.33° C | 49% | 1021.7 hPa | - | - | - | - |
| 1788282306 | 28.33° C | 47% | 1021.6 hPa | - | - | - | - |
| 1788281406 | 30° C | 43% | 1021.6 hPa | - | - | - | - |
| 1788280506 | 30.56° C | 43% | 1021.6 hPa | - | - | - | - |
| 1788279606 | 30.56° C | 42% | 1021.7 hPa | - | - | - | - |
| 1788278708 | 29.44° C | 43% | 1021.7 hPa | - | - | - | - |
| 1788277805 | 30.56° C | 42% | 1021.7 hPa | - | - | - | - |
| 1788276905 | 29.44° C | 44% | 1021.8 hPa | - | - | - | - |
| 1788276024 | 30° C | 43% | 1021.8 hPa | - | - | - | - |
| 1788275126 | 29.44° C | 43% | 1021.9 hPa | - | - | - | - |
| 1788274205 | 29.44° C | 44% | 1021.8 hPa | - | - | - | - |
| 1788272415 | 29.44° C | 44% | 1021.8 hPa | - | - | - | - |
| 1788271514 | 28.89° C | 44% | 1022 hPa | - | - | - | - |
| 1788270614 | 29.44° C | 45% | 1022.1 hPa | - | - | - | - |
| 1788269714 | 29.44° C | 42% | 1022 hPa | - | - | - | - |
| 1788268814 | 28.89° C | 43% | 1022.3 hPa | - | - | - | - |
| 1788267914 | 31.11° C | 40% | 1022.3 hPa | - | - | - | - |
| 1788267014 | 30° C | 41% | 1022.5 hPa | - | - | - | - |
* Rain since midnight (hover to see other rain measurements)
** Current wind speed in m/s (hover to see current wind gust speed)